createdAt,value
2022-08-07T00:00:40.002Z,102149.25
2022-08-07T00:03:28.551Z,102155.41
2022-08-07T00:06:32.932Z,102154.53
2022-08-07T00:09:20.831Z,102149.25
2022-08-07T00:12:08.588Z,102149.25
2022-08-07T00:14:57.117Z,102145.75
2022-08-07T00:17:45.421Z,102150.19
2022-08-07T00:20:46.557Z,102152.84
2022-08-07T00:23:36.390Z,102142.28
2022-08-07T00:26:49.593Z,102147.59
2022-08-07T00:29:32.589Z,102147.63
2022-08-07T00:32:19.268Z,102151.16
2022-08-07T00:35:15.288Z,102144.09
2022-08-07T00:38:05.248Z,102149.44
2022-08-07T00:40:52.334Z,102159.16
2022-08-07T00:43:59.298Z,102150.34
2022-08-07T00:46:45.971Z,102141.53
2022-08-07T00:50:19.310Z,102145.06
2022-08-07T00:52:39.917Z,102146.00
2022-08-07T00:56:02.894Z,102148.63
2022-08-07T00:58:36.575Z,102147.81
2022-08-07T01:01:25.057Z,102145.22
2022-08-07T01:04:12.228Z,102142.63
2022-08-07T01:07:12.009Z,102148.81
2022-08-07T01:10:05.812Z,102151.44
2022-08-07T01:12:58.523Z,102138.22
2022-08-07T01:16:00.883Z,102145.28
2022-08-07T01:18:52.410Z,102151.50
2022-08-07T01:21:43.580Z,102151.50
2022-08-07T01:24:30.805Z,102149.75
2022-08-07T01:27:19.369Z,102148.00
2022-08-07T01:30:09.544Z,102144.50
2022-08-07T01:32:58.395Z,102140.13
2022-08-07T01:35:53.065Z,102147.16
2022-08-07T01:38:43.501Z,102148.06
2022-08-07T01:41:55.227Z,102142.78
2022-08-07T01:44:53.571Z,102143.66
2022-08-07T01:48:29.296Z,102140.16
2022-08-07T01:50:50.367Z,102139.28
2022-08-07T01:54:09.401Z,102136.66
2022-08-07T01:56:53.290Z,102147.19
2022-08-07T01:59:47.346Z,102147.19
2022-08-07T02:03:12.224Z,102151.59
2022-08-07T02:05:59.416Z,102161.34
2022-08-07T02:08:54.215Z,102156.06
2022-08-07T02:12:03.846Z,102152.53
2022-08-07T02:14:58.168Z,102156.94
2022-08-07T02:17:59.887Z,102150.78
2022-08-07T02:20:51.941Z,102156.94
2022-08-07T02:23:45.314Z,102160.47
2022-08-07T02:26:36.273Z,102154.28
2022-08-07T02:29:26.952Z,102151.63
2022-08-07T02:32:16.014Z,102151.63
2022-08-07T02:35:06.161Z,102158.72
2022-08-07T02:37:59.173Z,102156.94
2022-08-07T02:40:51.503Z,102152.53
2022-08-07T02:43:47.633Z,102151.63
2022-08-07T02:46:38.592Z,102150.75
2022-08-07T02:49:57.777Z,102149.00
2022-08-07T02:52:48.738Z,102151.63
2022-08-07T02:56:04.076Z,102149.88
2022-08-07T02:58:53.954Z,102149.00
2022-08-07T03:01:47.318Z,102146.34
2022-08-07T03:04:42.939Z,102152.50
2022-08-07T03:08:05.152Z,102126.13
2022-08-07T03:10:46.452Z,102149.00
2022-08-07T03:13:39.274Z,102129.63
2022-08-07T03:16:39.300Z,102148.09
2022-08-07T03:19:37.101Z,102148.97
2022-08-07T03:22:30.721Z,102143.69
2022-08-07T03:25:18.914Z,102150.72
2022-08-07T03:28:37.786Z,102149.84
2022-08-07T03:31:24.837Z,102149.84
2022-08-07T03:34:22.368Z,102142.81
2022-08-07T03:37:14.642Z,102155.13
2022-08-07T03:40:16.742Z,102156.00
2022-08-07T03:43:05.432Z,102164.78
2022-08-07T03:46:03.596Z,102159.53
2022-08-07T03:49:02.814Z,102156.00
2022-08-07T03:52:01.784Z,102162.16
2022-08-07T03:54:54.210Z,102158.63
2022-08-07T03:58:32.572Z,102161.28
2022-08-07T04:01:00.328Z,102162.16
2022-08-07T04:03:55.374Z,102159.53
2022-08-07T04:06:45.418Z,102160.41
2022-08-07T04:09:45.264Z,102166.56
2022-08-07T04:12:42.248Z,102167.44
2022-08-07T04:15:29.297Z,102164.81
2022-08-07T04:18:57.653Z,102161.28
2022-08-07T04:21:23.882Z,102163.94
2022-08-07T04:24:26.844Z,102166.59
2022-08-07T04:27:25.801Z,102167.47
2022-08-07T04:30:35.831Z,102169.22
2022-08-07T04:33:33.644Z,102154.31
2022-08-07T04:36:26.297Z,102175.38
2022-08-07T04:39:14.112Z,102167.34
2022-08-07T04:42:05.464Z,102166.38
2022-08-07T04:45:02.977Z,102170.72
2022-08-07T04:48:10.155Z,102176.03
2022-08-07T04:51:09.326Z,102173.41
2022-08-07T04:54:06.708Z,102168.81
2022-08-07T04:58:23.958Z,102168.69
2022-08-07T05:00:18.898Z,102169.56
2022-08-07T05:03:38.777Z,102176.63
2022-08-07T05:06:43.236Z,102188.03
2022-08-07T05:09:45.539Z,102183.59
2022-08-07T05:12:46.271Z,102182.47
2022-08-07T05:15:43.773Z,102178.44
2022-08-07T05:18:36.939Z,102185.47
2022-08-07T05:22:00.666Z,102171.41
2022-08-07T05:24:40.398Z,102169.94
2022-08-07T05:28:03.336Z,102174.75
2022-08-07T05:30:40.181Z,102175.47
2022-08-07T05:33:35.550Z,102179.94
2022-08-07T05:36:30.606Z,102179.88
2022-08-07T05:40:14.104Z,102184.28
2022-08-07T05:42:36.985Z,102178.81
2022-08-07T05:45:47.756Z,102181.00
2022-08-07T05:48:58.644Z,102170.78
2022-08-07T05:51:49.704Z,102189.00
2022-08-07T05:54:53.817Z,102180.47
2022-08-07T05:57:48.769Z,102183.44
2022-08-07T06:00:50.929Z,102178.97
2022-08-07T06:06:56.403Z,102180.84
2022-08-07T06:10:05.232Z,102182.19
2022-08-07T06:12:56.044Z,102181.03
2022-08-07T06:15:44.436Z,102177.66
2022-08-07T06:18:40.963Z,102190.03
2022-08-07T06:22:15.471Z,102184.75
2022-08-07T06:24:53.072Z,102186.97
2022-08-07T06:28:01.630Z,102187.88
2022-08-07T06:30:50.694Z,102190.34
2022-08-07T06:33:41.519Z,102190.28
2022-08-07T06:36:35.359Z,102188.19
2022-08-07T06:40:16.668Z,102182.69
2022-08-07T06:42:37.633Z,102179.50
2022-08-07T06:45:50.692Z,102179.94
2022-08-07T06:48:41.758Z,102187.59
2022-08-07T06:51:33.434Z,102193.22
2022-08-07T06:55:31.952Z,102188.13
2022-08-07T06:57:43.633Z,102191.06
2022-08-07T07:00:44.022Z,102189.72
2022-08-07T07:03:48.871Z,102182.06
2022-08-07T07:06:39.399Z,102182.88
2022-08-07T07:09:46.585Z,102181.78
2022-08-07T07:12:41.849Z,102183.66
2022-08-07T07:15:41.138Z,102181.25
2022-08-07T07:18:47.779Z,102178.69
2022-08-07T07:22:11.871Z,102180.47
2022-08-07T07:25:02.627Z,102182.28
2022-08-07T07:28:02.551Z,102167.84
2022-08-07T07:30:57.147Z,102173.72
2022-08-07T07:33:54.907Z,102169.66
2022-08-07T07:36:47.821Z,102171.19
2022-08-07T07:39:52.272Z,102173.38
2022-08-07T07:42:42.637Z,102163.84
2022-08-07T07:46:37.200Z,102162.53
2022-08-07T07:48:40.964Z,102155.19
2022-08-07T07:51:33.347Z,102156.53
2022-08-07T07:54:50.901Z,102158.94
2022-08-07T07:57:52.280Z,102151.09
2022-08-07T08:00:45.715Z,102139.22
2022-08-07T08:04:10.573Z,102145.41
2022-08-07T08:06:53.195Z,102137.19
2022-08-07T08:09:52.546Z,102146.25
2022-08-07T08:12:58.894Z,102135.00
2022-08-07T08:18:36.392Z,102126.47
2022-08-07T08:18:57.773Z,102125.63
2022-08-07T08:22:04.920Z,102124.44
2022-08-07T08:25:24.674Z,102132.38
2022-08-07T08:28:37.650Z,102126.03
2022-08-07T08:31:30.211Z,102121.16
2022-08-07T08:34:37.562Z,102121.00
2022-08-07T08:38:01.388Z,102124.56
2022-08-07T08:40:37.228Z,102116.00
2022-08-07T08:43:42.629Z,102120.47
2022-08-07T08:46:44.899Z,102114.75
2022-08-07T08:49:57.162Z,102111.91
2022-08-07T08:52:55.385Z,102116.97
2022-08-07T08:55:55.211Z,102110.84
2022-08-07T08:58:54.662Z,102107.75
2022-08-07T09:01:49.499Z,102110.59
2022-08-07T09:04:45.896Z,102107.88
2022-08-07T09:07:46.591Z,102108.97
2022-08-07T09:10:49.979Z,102108.69
2022-08-07T09:13:42.196Z,102104.59
2022-08-07T09:16:41.292Z,102099.22
2022-08-07T09:19:53.676Z,102103.38
2022-08-07T09:24:54.568Z,102092.75
2022-08-07T09:26:23.799Z,102095.50
2022-08-07T09:30:03.804Z,102096.19
2022-08-07T09:32:45.088Z,102072.66
2022-08-07T09:36:04.423Z,102084.13
2022-08-07T09:39:11.501Z,102071.91
2022-08-07T09:42:33.008Z,102083.84
2022-08-07T09:47:23.555Z,102085.13
2022-08-07T09:49:02.322Z,102084.63
2022-08-07T09:52:15.459Z,102084.63
2022-08-07T09:55:42.914Z,102074.84
2022-08-07T09:58:52.475Z,102068.91
2022-08-07T10:02:00.067Z,102068.13
2022-08-07T10:05:29.374Z,102056.28
2022-08-07T10:08:45.605Z,102062.56
2022-08-07T10:12:02.101Z,102049.06
2022-08-07T10:15:15.174Z,102055.88
2022-08-07T10:18:35.725Z,102038.56
2022-08-07T10:22:14.982Z,102043.81
2022-08-07T10:24:52.260Z,102033.13
2022-08-07T10:28:12.631Z,102035.13
2022-08-07T10:31:17.824Z,102039.47
2022-08-07T10:34:18.045Z,102029.78
2022-08-07T10:37:26.559Z,102024.63
2022-08-07T10:40:42.703Z,102024.28
2022-08-07T10:43:35.978Z,102020.78
2022-08-07T10:46:27.255Z,102009.19
2022-08-07T10:49:24.688Z,102014.56
2022-08-07T10:52:40.010Z,102012.88
2022-08-07T10:55:37.935Z,102012.28
2022-08-07T10:58:40.527Z,101998.22
2022-08-07T11:01:50.985Z,102003.84
2022-08-07T11:05:01.669Z,102001.84
2022-08-07T11:08:04.750Z,101996.38
2022-08-07T11:11:00.149Z,101991.84
2022-08-07T11:14:44.468Z,101998.22
2022-08-07T11:17:02.438Z,101990.81
2022-08-07T11:19:59.364Z,101997.63
2022-08-07T11:22:58.698Z,101993.56
2022-08-07T11:25:54.138Z,101984.56
2022-08-07T11:28:53.562Z,101980.06
2022-08-07T11:31:48.015Z,101971.13
2022-08-07T11:34:46.839Z,101973.72
2022-08-07T11:38:12.771Z,101969.19
2022-08-07T11:41:09.133Z,101959.72
2022-08-07T11:44:18.599Z,101955.00
2022-08-07T11:47:13.840Z,101952.56
2022-08-07T11:50:31.431Z,101950.94
2022-08-07T11:53:35.358Z,101952.13
2022-08-07T11:56:36.571Z,101946.38
2022-08-07T12:00:10.778Z,101944.03
2022-08-07T12:03:42.313Z,101932.72
2022-08-07T12:06:44.880Z,101938.22
2022-08-07T12:09:46.157Z,101939.22
2022-08-07T12:12:38.796Z,101927.66
2022-08-07T12:15:46.497Z,101919.19
2022-08-07T12:18:46.340Z,101931.50
2022-08-07T12:21:55.788Z,101923.06
2022-08-07T12:26:22.057Z,101916.19
2022-08-07T12:28:44.986Z,101916.09
2022-08-07T12:32:01.829Z,101914.63
2022-08-07T12:34:49.353Z,101911.50
2022-08-07T12:38:09.067Z,101894.91
2022-08-07T12:40:51.120Z,101908.84
2022-08-07T12:44:04.038Z,101901.72
2022-08-07T12:47:06.299Z,101905.09
2022-08-07T12:50:04.731Z,101904.44
2022-08-07T12:53:22.044Z,101897.03
2022-08-07T12:56:13.472Z,101898.34
2022-08-07T12:59:02.532Z,101892.66
2022-08-07T13:02:03.305Z,101894.38
2022-08-07T13:06:02.115Z,101889.19
2022-08-07T13:08:42.175Z,101882.00
2022-08-07T13:12:02.477Z,101882.78
2022-08-07T13:15:00.459Z,101886.59
2022-08-07T13:17:53.834Z,101875.84
2022-08-07T13:20:51.002Z,101877.03
2022-08-07T13:24:00.554Z,101873.06
2022-08-07T13:27:02.980Z,101876.84
2022-08-07T13:30:03.715Z,101872.25
2022-08-07T13:32:58.251Z,101862.16
2022-08-07T13:36:00.751Z,101861.16
2022-08-07T13:39:02.243Z,101855.63
2022-08-07T13:41:54.876Z,101866.59
2022-08-07T13:44:44.577Z,101861.97
2022-08-07T13:48:05.390Z,101856.22
2022-08-07T13:51:01.303Z,101857.31
2022-08-07T13:54:00.405Z,101844.25
2022-08-07T13:56:51.660Z,101840.28
2022-08-07T13:59:45.986Z,101847.91
2022-08-07T14:02:51.122Z,101833.41
2022-08-07T14:05:41.499Z,101835.34
2022-08-07T14:08:29.875Z,101832.56
2022-08-07T14:11:21.710Z,101833.72
2022-08-07T14:14:12.624Z,101830.50
2022-08-07T14:17:13.020Z,101835.72
2022-08-07T14:20:39.783Z,101833.03
2022-08-07T14:23:31.512Z,101832.56
2022-08-07T14:26:40.637Z,101828.03
2022-08-07T14:30:07.378Z,101822.47
2022-08-07T14:32:57.741Z,101821.50
2022-08-07T14:35:47.678Z,101813.78
2022-08-07T14:38:35.548Z,101809.81
2022-08-07T14:41:33.945Z,101808.00
2022-08-07T14:44:39.079Z,101812.38
2022-08-07T14:47:27.816Z,101807.22
2022-08-07T14:50:19.812Z,101805.03
2022-08-07T15:00:03.370Z,101798.78
2022-08-07T15:02:39.256Z,101798.22
2022-08-07T15:05:30.385Z,101797.47
2022-08-07T15:08:32.304Z,101798.16
2022-08-07T15:11:53.340Z,101792.16
2022-08-07T15:14:30.828Z,101794.19
2022-08-07T15:17:21.174Z,101790.38
2022-08-07T15:20:31.304Z,101797.59
2022-08-07T15:25:15.571Z,101790.38
2022-08-07T15:30:09.031Z,101782.59
2022-08-07T15:33:01.661Z,101790.06
2022-08-07T15:36:01.209Z,101790.38
2022-08-07T15:39:04.246Z,101789.03
2022-08-07T15:42:46.282Z,101788.72
2022-08-07T15:45:19.272Z,101781.84
2022-08-07T15:48:14.514Z,101779.00
2022-08-07T15:54:17.568Z,101767.66
2022-08-07T15:57:05.862Z,101766.94
2022-08-07T15:59:54.931Z,101764.88
2022-08-07T16:02:46.948Z,101768.66
2022-08-07T16:05:36.181Z,101764.72
2022-08-07T16:08:37.926Z,101762.31
2022-08-07T16:11:40.149Z,101762.03
2022-08-07T16:14:37.807Z,101763.19
2022-08-07T16:18:02.003Z,101765.97
2022-08-07T16:21:43.992Z,101761.16
2022-08-07T16:24:02.463Z,101759.47
2022-08-07T16:27:00.896Z,101763.34
2022-08-07T16:30:11.639Z,101774.75
2022-08-07T16:34:02.644Z,101769.28
2022-08-07T16:36:31.299Z,101766.47
2022-08-07T16:39:40.676Z,101771.88
2022-08-07T16:42:52.545Z,101771.16
2022-08-07T16:46:41.049Z,101764.41
2022-08-07T16:50:27.097Z,101768.56
2022-08-07T16:53:14.774Z,101763.31
2022-08-07T16:56:19.041Z,101761.22
2022-08-07T16:59:14.366Z,101759.56
2022-08-07T17:02:50.889Z,101758.34
2022-08-07T17:06:19.850Z,101763.47
2022-08-07T17:09:10.336Z,101755.06
2022-08-07T17:12:33.854Z,101760.78
2022-08-07T17:15:21.109Z,101760.88
2022-08-07T17:18:18.493Z,101763.66
2022-08-07T17:21:19.168Z,101757.16
2022-08-07T17:24:32.912Z,101760.66
2022-08-07T17:27:51.085Z,101760.41
2022-08-07T17:30:58.277Z,101759.53
2022-08-07T17:34:33.402Z,101762.13
2022-08-07T17:37:09.548Z,101771.47
2022-08-07T17:40:30.611Z,101777.22
2022-08-07T17:44:01.622Z,101771.59
2022-08-07T17:46:52.639Z,101774.09
2022-08-07T17:49:46.143Z,101773.91
2022-08-07T17:52:39.722Z,101770.19
2022-08-07T17:56:01.172Z,101764.38
2022-08-07T17:58:51.621Z,101765.47
2022-08-07T18:01:48.592Z,101765.03
2022-08-07T18:04:43.387Z,101767.56
2022-08-07T18:07:44.823Z,101761.78
2022-08-07T18:12:08.420Z,101760.44
2022-08-07T18:14:16.454Z,101765.97
2022-08-07T18:17:14.091Z,101765.19
2022-08-07T18:21:07.007Z,101761.34
2022-08-07T18:23:43.418Z,101758.44
2022-08-07T18:27:00.711Z,101768.38
2022-08-07T18:30:07.092Z,101764.41
2022-08-07T18:33:58.977Z,101770.38
2022-08-07T18:36:56.839Z,101775.44
2022-08-07T18:40:06.754Z,101777.69
2022-08-07T18:43:05.796Z,101773.66
2022-08-07T18:46:25.818Z,101784.50
2022-08-07T18:50:05.934Z,101773.47
2022-08-07T18:52:54.196Z,101785.19
2022-08-07T18:55:55.735Z,101781.22
2022-08-07T18:58:56.102Z,101786.06
2022-08-07T19:02:31.967Z,101790.97
2022-08-07T19:05:14.993Z,101792.25
2022-08-07T19:08:07.584Z,101796.16
2022-08-07T19:11:15.501Z,101795.53
2022-08-07T19:14:16.999Z,101794.31
2022-08-07T19:18:00.809Z,101796.41
2022-08-07T19:20:32.783Z,101798.47
2022-08-07T19:23:57.939Z,101806.00
2022-08-07T19:27:09.102Z,101795.94
2022-08-07T19:31:04.682Z,101808.03
2022-08-07T19:33:08.394Z,101810.16
2022-08-07T19:36:00.470Z,101803.59
2022-08-07T19:38:53.882Z,101782.28
2022-08-07T19:42:05.509Z,101815.25
2022-08-07T19:44:50.910Z,101819.09
2022-08-07T19:47:43.306Z,101817.63
2022-08-07T19:50:43.120Z,101815.72
2022-08-07T19:54:31.662Z,101822.53
2022-08-07T19:57:59.840Z,101822.88
2022-08-07T19:59:57.137Z,101822.28
2022-08-07T20:02:52.089Z,101809.91
2022-08-07T20:05:59.775Z,101825.19
2022-08-07T20:08:52.447Z,101831.63
2022-08-07T20:12:23.201Z,101822.84
2022-08-07T20:14:54.104Z,101837.75
2022-08-07T20:18:01.497Z,101836.03
2022-08-07T20:20:57.808Z,101840.94
2022-08-07T20:23:53.832Z,101841.34
2022-08-07T20:26:49.895Z,101845.03
2022-08-07T20:29:48.647Z,101843.56
2022-08-07T20:32:48.298Z,101843.75
2022-08-07T20:35:54.378Z,101849.34
2022-08-07T20:39:00.447Z,101851.34
2022-08-07T20:41:54.231Z,101847.97
2022-08-07T20:44:49.607Z,101855.81
2022-08-07T20:47:56.268Z,101851.84
2022-08-07T20:50:44.912Z,101862.47
2022-08-07T20:54:02.833Z,101848.97
2022-08-07T20:56:49.960Z,101856.31
2022-08-07T21:00:08.145Z,101852.66
2022-08-07T21:03:04.129Z,101855.22
2022-08-07T21:06:01.490Z,101851.03
2022-08-07T21:09:13.775Z,101857.69
2022-08-07T21:12:15.427Z,101851.78
2022-08-07T21:15:18.646Z,101854.69
2022-08-07T21:18:20.188Z,101858.41
2022-08-07T21:21:16.629Z,101855.09
2022-08-07T21:24:10.832Z,101856.09
2022-08-07T21:27:14.920Z,101858.19
2022-08-07T21:30:09.179Z,101862.75
2022-08-07T21:33:20.991Z,101861.72
2022-08-07T21:36:31.482Z,101865.34
2022-08-07T21:39:45.109Z,101868.53
2022-08-07T21:42:49.393Z,101867.94
2022-08-07T21:46:11.027Z,101869.09
2022-08-07T21:48:57.807Z,101868.31
2022-08-07T21:52:04.964Z,101862.31
2022-08-07T21:55:07.550Z,101862.47
2022-08-07T21:58:08.146Z,101862.59
2022-08-07T22:01:04.210Z,101867.16
2022-08-07T22:04:17.567Z,101867.38
2022-08-07T22:07:12.655Z,101868.53
2022-08-07T22:10:07.204Z,101867.41
2022-08-07T22:12:58.100Z,101873.13
2022-08-07T22:16:38.345Z,101853.97
2022-08-07T22:19:29.307Z,101867.88
2022-08-07T22:22:28.674Z,101873.34
2022-08-07T22:25:26.560Z,101847.81
2022-08-07T22:28:31.832Z,101879.31
2022-08-07T22:31:45.444Z,101870.81
2022-08-07T22:34:49.798Z,101881.50
2022-08-07T22:38:01.840Z,101877.38
2022-08-07T22:40:56.171Z,101859.00
2022-08-07T22:43:48.820Z,101879.22
2022-08-07T22:47:06.320Z,101878.25
2022-08-07T22:50:21.030Z,101872.38
2022-08-07T22:54:06.493Z,101877.78
2022-08-07T22:56:59.344Z,101876.00
2022-08-07T22:59:53.776Z,101880.53
2022-08-07T23:03:01.243Z,101892.94
2022-08-07T23:06:19.019Z,101868.09
2022-08-07T23:10:03.488Z,101880.75
2022-08-07T23:12:55.578Z,101882.72
2022-08-07T23:16:06.832Z,101882.88
2022-08-07T23:19:38.731Z,101888.28
2022-08-07T23:22:46.541Z,101893.72
2022-08-07T23:25:49.850Z,101894.69
2022-08-07T23:29:01.971Z,101894.78
2022-08-07T23:34:18.889Z,101889.63
2022-08-07T23:35:20.403Z,101889.56
2022-08-07T23:38:36.907Z,101897.44
2022-08-07T23:42:05.037Z,101892.44
2022-08-07T23:45:33.300Z,101895.97
2022-08-07T23:49:15.185Z,101900.56
2022-08-07T23:52:59.938Z,101893.63
2022-08-07T23:55:47.054Z,101899.03
2022-08-07T23:58:45.241Z,101891.16
